sensor_id;sensor_type;location;lat;lon;timestamp;P1;durP1;ratioP1;P2;durP2;ratioP2
44452;SDS011;30155;52.164;21.236;2024-02-16T00:02:50;15.90;;;12.00;;
44452;SDS011;30155;52.164;21.236;2024-02-16T00:07:43;19.80;;;11.90;;
44452;SDS011;30155;52.164;21.236;2024-02-16T00:12:35;21.50;;;12.30;;
44452;SDS011;30155;52.164;21.236;2024-02-16T00:17:27;16.30;;;11.50;;
44452;SDS011;30155;52.164;21.236;2024-02-16T00:22:19;18.90;;;11.60;;
44452;SDS011;30155;52.164;21.236;2024-02-16T00:27:11;13.60;;;10.10;;
44452;SDS011;30155;52.164;21.236;2024-02-16T00:32:03;13.90;;;10.80;;
44452;SDS011;30155;52.164;21.236;2024-02-16T00:36:56;16.00;;;11.20;;
44452;SDS011;30155;52.164;21.236;2024-02-16T00:41:49;12.40;;;10.50;;
44452;SDS011;30155;52.164;21.236;2024-02-16T00:46:41;12.60;;;9.00;;
44452;SDS011;30155;52.164;21.236;2024-02-16T00:51:33;14.20;;;10.00;;
44452;SDS011;30155;52.164;21.236;2024-02-16T00:56:24;15.00;;;10.90;;
44452;SDS011;30155;52.164;21.236;2024-02-16T01:01:16;15.80;;;9.80;;
44452;SDS011;30155;52.164;21.236;2024-02-16T01:06:08;13.10;;;9.20;;
44452;SDS011;30155;52.164;21.236;2024-02-16T01:11:01;18.50;;;10.90;;
44452;SDS011;30155;52.164;21.236;2024-02-16T01:15:53;13.90;;;9.40;;
44452;SDS011;30155;52.164;21.236;2024-02-16T01:20:45;11.60;;;8.70;;
44452;SDS011;30155;52.164;21.236;2024-02-16T01:25:37;14.00;;;9.20;;
44452;SDS011;30155;52.164;21.236;2024-02-16T01:30:29;13.30;;;8.80;;
44452;SDS011;30155;52.164;21.236;2024-02-16T01:35:31;15.00;;;9.00;;
44452;SDS011;30155;52.164;21.236;2024-02-16T01:40:23;14.60;;;8.90;;
44452;SDS011;30155;52.164;21.236;2024-02-16T01:45:16;13.30;;;8.50;;
44452;SDS011;30155;52.164;21.236;2024-02-16T01:50:08;12.50;;;7.60;;
44452;SDS011;30155;52.164;21.236;2024-02-16T01:55:00;14.50;;;8.30;;
44452;SDS011;30155;52.164;21.236;2024-02-16T01:59:54;9.40;;;6.90;;
44452;SDS011;30155;52.164;21.236;2024-02-16T02:04:46;11.20;;;7.10;;
44452;SDS011;30155;52.164;21.236;2024-02-16T02:09:37;12.30;;;7.50;;
44452;SDS011;30155;52.164;21.236;2024-02-16T02:14:29;11.70;;;7.80;;
44452;SDS011;30155;52.164;21.236;2024-02-16T02:19:20;8.60;;;7.50;;
44452;SDS011;30155;52.164;21.236;2024-02-16T02:24:12;9.20;;;6.70;;
44452;SDS011;30155;52.164;21.236;2024-02-16T02:29:04;9.20;;;6.90;;
44452;SDS011;30155;52.164;21.236;2024-02-16T02:33:56;13.60;;;7.90;;
44452;SDS011;30155;52.164;21.236;2024-02-16T02:38:48;10.10;;;7.40;;
44452;SDS011;30155;52.164;21.236;2024-02-16T02:43:40;9.20;;;7.20;;
44452;SDS011;30155;52.164;21.236;2024-02-16T02:48:31;10.20;;;6.60;;
44452;SDS011;30155;52.164;21.236;2024-02-16T02:53:23;10.80;;;7.80;;
44452;SDS011;30155;52.164;21.236;2024-02-16T02:58:14;9.90;;;7.40;;
44452;SDS011;30155;52.164;21.236;2024-02-16T03:03:06;11.30;;;7.40;;
44452;SDS011;30155;52.164;21.236;2024-02-16T03:07:57;10.30;;;8.40;;
44452;SDS011;30155;52.164;21.236;2024-02-16T03:12:49;8.60;;;7.10;;
44452;SDS011;30155;52.164;21.236;2024-02-16T03:17:41;11.50;;;7.60;;
44452;SDS011;30155;52.164;21.236;2024-02-16T03:22:32;9.60;;;6.60;;
44452;SDS011;30155;52.164;21.236;2024-02-16T03:27:24;10.40;;;6.80;;
44452;SDS011;30155;52.164;21.236;2024-02-16T03:32:15;11.20;;;6.80;;
44452;SDS011;30155;52.164;21.236;2024-02-16T03:37:07;9.70;;;6.80;;
44452;SDS011;30155;52.164;21.236;2024-02-16T03:42:00;11.20;;;6.30;;
44452;SDS011;30155;52.164;21.236;2024-02-16T03:46:52;10.00;;;6.90;;
44452;SDS011;30155;52.164;21.236;2024-02-16T03:51:47;12.50;;;8.00;;
44452;SDS011;30155;52.164;21.236;2024-02-16T03:56:38;10.20;;;7.20;;
44452;SDS011;30155;52.164;21.236;2024-02-16T04:01:29;9.50;;;7.30;;
44452;SDS011;30155;52.164;21.236;2024-02-16T04:06:21;12.20;;;7.50;;
44452;SDS011;30155;52.164;21.236;2024-02-16T04:11:13;10.70;;;7.20;;
44452;SDS011;30155;52.164;21.236;2024-02-16T04:16:06;8.50;;;5.50;;
44452;SDS011;30155;52.164;21.236;2024-02-16T04:20:57;10.30;;;7.20;;
44452;SDS011;30155;52.164;21.236;2024-02-16T04:25:49;11.40;;;7.80;;
44452;SDS011;30155;52.164;21.236;2024-02-16T04:30:40;11.70;;;7.30;;
44452;SDS011;30155;52.164;21.236;2024-02-16T04:35:31;14.10;;;7.70;;
44452;SDS011;30155;52.164;21.236;2024-02-16T04:40:23;10.80;;;7.80;;
44452;SDS011;30155;52.164;21.236;2024-02-16T04:45:14;9.70;;;8.30;;
44452;SDS011;30155;52.164;21.236;2024-02-16T04:50:06;10.00;;;6.90;;
44452;SDS011;30155;52.164;21.236;2024-02-16T04:55:16;12.40;;;7.80;;
44452;SDS011;30155;52.164;21.236;2024-02-16T05:00:08;12.20;;;6.60;;
44452;SDS011;30155;52.164;21.236;2024-02-16T05:05:00;9.30;;;6.60;;
44452;SDS011;30155;52.164;21.236;2024-02-16T05:09:55;9.80;;;7.10;;
44452;SDS011;30155;52.164;21.236;2024-02-16T05:14:49;9.70;;;7.30;;
44452;SDS011;30155;52.164;21.236;2024-02-16T05:19:41;9.90;;;7.40;;
44452;SDS011;30155;52.164;21.236;2024-02-16T05:24:33;11.50;;;7.70;;
44452;SDS011;30155;52.164;21.236;2024-02-16T05:29:25;11.70;;;8.00;;
44452;SDS011;30155;52.164;21.236;2024-02-16T05:34:17;13.40;;;8.10;;
44452;SDS011;30155;52.164;21.236;2024-02-16T05:39:09;11.60;;;7.40;;
44452;SDS011;30155;52.164;21.236;2024-02-16T05:44:10;13.60;;;8.60;;
44452;SDS011;30155;52.164;21.236;2024-02-16T05:49:02;16.40;;;10.70;;
44452;SDS011;30155;52.164;21.236;2024-02-16T05:53:54;10.50;;;7.70;;
44452;SDS011;30155;52.164;21.236;2024-02-16T05:58:45;18.10;;;9.00;;
44452;SDS011;30155;52.164;21.236;2024-02-16T06:03:40;15.80;;;9.90;;
44452;SDS011;30155;52.164;21.236;2024-02-16T06:08:33;22.40;;;10.30;;
44452;SDS011;30155;52.164;21.236;2024-02-16T06:13:24;15.30;;;8.90;;
44452;SDS011;30155;52.164;21.236;2024-02-16T06:18:15;19.90;;;9.50;;
44452;SDS011;30155;52.164;21.236;2024-02-16T06:23:07;14.50;;;8.90;;
44452;SDS011;30155;52.164;21.236;2024-02-16T06:27:59;12.10;;;8.30;;
44452;SDS011;30155;52.164;21.236;2024-02-16T06:32:51;14.40;;;8.90;;
44452;SDS011;30155;52.164;21.236;2024-02-16T06:37:42;16.70;;;9.70;;
44452;SDS011;30155;52.164;21.236;2024-02-16T06:42:34;15.50;;;8.80;;
44452;SDS011;30155;52.164;21.236;2024-02-16T06:47:25;15.60;;;10.00;;
44452;SDS011;30155;52.164;21.236;2024-02-16T06:52:17;19.40;;;10.00;;
44452;SDS011;30155;52.164;21.236;2024-02-16T06:57:09;15.80;;;9.30;;
44452;SDS011;30155;52.164;21.236;2024-02-16T07:02:03;20.70;;;11.70;;
44452;SDS011;30155;52.164;21.236;2024-02-16T07:06:55;14.30;;;8.90;;
44452;SDS011;30155;52.164;21.236;2024-02-16T07:11:46;18.00;;;9.50;;
44452;SDS011;30155;52.164;21.236;2024-02-16T07:16:44;15.60;;;10.20;;
44452;SDS011;30155;52.164;21.236;2024-02-16T07:21:35;16.60;;;10.60;;
44452;SDS011;30155;52.164;21.236;2024-02-16T07:26:27;21.50;;;11.60;;
44452;SDS011;30155;52.164;21.236;2024-02-16T07:31:20;14.40;;;11.40;;
44452;SDS011;30155;52.164;21.236;2024-02-16T07:36:11;13.20;;;9.70;;
44452;SDS011;30155;52.164;21.236;2024-02-16T07:41:04;15.70;;;9.80;;
44452;SDS011;30155;52.164;21.236;2024-02-16T07:46:00;11.80;;;9.60;;
44452;SDS011;30155;52.164;21.236;2024-02-16T07:50:51;16.40;;;10.40;;
44452;SDS011;30155;52.164;21.236;2024-02-16T07:55:43;18.10;;;11.20;;
44452;SDS011;30155;52.164;21.236;2024-02-16T08:00:34;14.00;;;9.90;;
44452;SDS011;30155;52.164;21.236;2024-02-16T08:05:26;15.60;;;9.80;;
44452;SDS011;30155;52.164;21.236;2024-02-16T08:10:20;12.80;;;9.60;;
44452;SDS011;30155;52.164;21.236;2024-02-16T08:15:12;13.60;;;9.40;;
44452;SDS011;30155;52.164;21.236;2024-02-16T08:20:04;13.00;;;9.90;;
44452;SDS011;30155;52.164;21.236;2024-02-16T08:25:00;16.70;;;10.10;;
44452;SDS011;30155;52.164;21.236;2024-02-16T08:29:52;13.50;;;9.30;;
44452;SDS011;30155;52.164;21.236;2024-02-16T08:34:43;13.00;;;8.60;;
44452;SDS011;30155;52.164;21.236;2024-02-16T08:39:37;14.10;;;8.90;;
44452;SDS011;30155;52.164;21.236;2024-02-16T08:44:29;13.10;;;9.10;;
44452;SDS011;30155;52.164;21.236;2024-02-16T08:49:20;12.70;;;8.70;;
44452;SDS011;30155;52.164;21.236;2024-02-16T08:54:12;18.50;;;9.70;;
44452;SDS011;30155;52.164;21.236;2024-02-16T08:59:04;13.10;;;9.60;;
44452;SDS011;30155;52.164;21.236;2024-02-16T09:03:55;17.00;;;9.10;;
44452;SDS011;30155;52.164;21.236;2024-02-16T09:08:49;10.60;;;8.60;;
44452;SDS011;30155;52.164;21.236;2024-02-16T09:13:41;15.20;;;10.40;;
44452;SDS011;30155;52.164;21.236;2024-02-16T09:18:32;11.10;;;8.50;;
44452;SDS011;30155;52.164;21.236;2024-02-16T09:23:24;11.30;;;8.60;;
44452;SDS011;30155;52.164;21.236;2024-02-16T09:28:16;11.80;;;9.30;;
44452;SDS011;30155;52.164;21.236;2024-02-16T09:33:20;9.90;;;8.80;;
44452;SDS011;30155;52.164;21.236;2024-02-16T09:38:12;12.00;;;8.50;;
44452;SDS011;30155;52.164;21.236;2024-02-16T09:43:04;10.90;;;8.60;;
44452;SDS011;30155;52.164;21.236;2024-02-16T09:47:55;11.20;;;8.70;;
44452;SDS011;30155;52.164;21.236;2024-02-16T09:52:57;9.70;;;8.60;;
44452;SDS011;30155;52.164;21.236;2024-02-16T09:57:59;11.90;;;7.70;;
44452;SDS011;30155;52.164;21.236;2024-02-16T10:02:51;7.80;;;7.00;;
44452;SDS011;30155;52.164;21.236;2024-02-16T10:07:43;9.10;;;6.80;;
44452;SDS011;30155;52.164;21.236;2024-02-16T10:12:35;10.70;;;7.60;;
44452;SDS011;30155;52.164;21.236;2024-02-16T10:17:26;7.50;;;6.70;;
44452;SDS011;30155;52.164;21.236;2024-02-16T10:22:18;10.50;;;7.00;;
44452;SDS011;30155;52.164;21.236;2024-02-16T10:27:13;8.40;;;6.80;;
44452;SDS011;30155;52.164;21.236;2024-02-16T10:32:09;9.70;;;8.10;;
44452;SDS011;30155;52.164;21.236;2024-02-16T10:37:02;7.10;;;6.40;;
44452;SDS011;30155;52.164;21.236;2024-02-16T10:41:55;10.60;;;6.90;;
44452;SDS011;30155;52.164;21.236;2024-02-16T10:46:50;13.50;;;8.70;;
44452;SDS011;30155;52.164;21.236;2024-02-16T10:51:44;7.50;;;6.80;;
44452;SDS011;30155;52.164;21.236;2024-02-16T10:56:39;7.30;;;6.70;;
44452;SDS011;30155;52.164;21.236;2024-02-16T11:01:32;9.90;;;7.60;;
44452;SDS011;30155;52.164;21.236;2024-02-16T11:06:53;10.00;;;8.00;;
44452;SDS011;30155;52.164;21.236;2024-02-16T11:11:51;9.10;;;8.20;;
44452;SDS011;30155;52.164;21.236;2024-02-16T11:16:47;9.00;;;7.00;;
44452;SDS011;30155;52.164;21.236;2024-02-16T11:21:38;9.50;;;8.20;;
44452;SDS011;30155;52.164;21.236;2024-02-16T11:26:30;8.20;;;7.30;;
44452;SDS011;30155;52.164;21.236;2024-02-16T11:31:21;8.50;;;7.30;;
44452;SDS011;30155;52.164;21.236;2024-02-16T11:36:13;9.60;;;8.00;;
44452;SDS011;30155;52.164;21.236;2024-02-16T11:41:07;11.50;;;9.70;;
44452;SDS011;30155;52.164;21.236;2024-02-16T11:45:59;11.10;;;8.20;;
44452;SDS011;30155;52.164;21.236;2024-02-16T11:50:58;14.20;;;9.30;;
44452;SDS011;30155;52.164;21.236;2024-02-16T11:55:51;9.60;;;8.00;;
44452;SDS011;30155;52.164;21.236;2024-02-16T12:00:43;10.60;;;8.90;;
44452;SDS011;30155;52.164;21.236;2024-02-16T12:05:35;10.30;;;8.60;;
44452;SDS011;30155;52.164;21.236;2024-02-16T12:10:26;7.60;;;6.80;;
44452;SDS011;30155;52.164;21.236;2024-02-16T12:15:18;7.70;;;6.40;;
44452;SDS011;30155;52.164;21.236;2024-02-16T12:20:11;8.50;;;6.60;;
44452;SDS011;30155;52.164;21.236;2024-02-16T12:25:05;10.80;;;7.50;;
44452;SDS011;30155;52.164;21.236;2024-02-16T12:29:56;9.90;;;7.10;;
44452;SDS011;30155;52.164;21.236;2024-02-16T12:34:48;11.70;;;8.00;;
44452;SDS011;30155;52.164;21.236;2024-02-16T12:39:40;10.70;;;7.60;;
44452;SDS011;30155;52.164;21.236;2024-02-16T12:44:32;9.90;;;7.90;;
44452;SDS011;30155;52.164;21.236;2024-02-16T12:49:23;11.00;;;7.00;;
44452;SDS011;30155;52.164;21.236;2024-02-16T12:54:15;10.30;;;7.80;;
44452;SDS011;30155;52.164;21.236;2024-02-16T12:59:10;10.30;;;8.30;;
44452;SDS011;30155;52.164;21.236;2024-02-16T13:04:01;10.50;;;8.10;;
44452;SDS011;30155;52.164;21.236;2024-02-16T13:08:53;8.20;;;6.60;;
44452;SDS011;30155;52.164;21.236;2024-02-16T13:13:45;8.60;;;7.50;;
44452;SDS011;30155;52.164;21.236;2024-02-16T13:24:15;9.70;;;7.70;;
44452;SDS011;30155;52.164;21.236;2024-02-16T13:29:07;10.20;;;8.60;;
44452;SDS011;30155;52.164;21.236;2024-02-16T13:33:58;11.10;;;8.10;;
44452;SDS011;30155;52.164;21.236;2024-02-16T13:38:50;9.70;;;8.30;;
44452;SDS011;30155;52.164;21.236;2024-02-16T13:43:41;8.90;;;7.30;;
44452;SDS011;30155;52.164;21.236;2024-02-16T13:48:33;12.50;;;8.10;;
44452;SDS011;30155;52.164;21.236;2024-02-16T13:53:28;8.60;;;7.50;;
44452;SDS011;30155;52.164;21.236;2024-02-16T13:58:19;8.60;;;6.70;;
44452;SDS011;30155;52.164;21.236;2024-02-16T14:03:11;16.30;;;7.90;;
44452;SDS011;30155;52.164;21.236;2024-02-16T14:08:05;9.30;;;6.90;;
44452;SDS011;30155;52.164;21.236;2024-02-16T14:13:00;10.50;;;7.30;;
44452;SDS011;30155;52.164;21.236;2024-02-16T14:17:51;9.20;;;7.20;;
44452;SDS011;30155;52.164;21.236;2024-02-16T14:22:43;12.30;;;7.80;;
44452;SDS011;30155;52.164;21.236;2024-02-16T14:27:35;9.30;;;7.00;;
44452;SDS011;30155;52.164;21.236;2024-02-16T14:32:26;9.50;;;6.60;;
44452;SDS011;30155;52.164;21.236;2024-02-16T14:37:18;10.30;;;7.40;;
44452;SDS011;30155;52.164;21.236;2024-02-16T14:42:09;11.30;;;7.10;;
44452;SDS011;30155;52.164;21.236;2024-02-16T14:47:01;9.00;;;7.30;;
44452;SDS011;30155;52.164;21.236;2024-02-16T14:51:52;17.90;;;6.90;;
44452;SDS011;30155;52.164;21.236;2024-02-16T14:56:44;9.40;;;7.30;;
44452;SDS011;30155;52.164;21.236;2024-02-16T15:01:36;9.80;;;7.40;;
44452;SDS011;30155;52.164;21.236;2024-02-16T15:06:28;7.70;;;6.10;;
44452;SDS011;30155;52.164;21.236;2024-02-16T15:11:20;9.20;;;6.60;;
44452;SDS011;30155;52.164;21.236;2024-02-16T15:16:11;12.50;;;7.20;;
44452;SDS011;30155;52.164;21.236;2024-02-16T15:21:03;14.30;;;7.50;;
44452;SDS011;30155;52.164;21.236;2024-02-16T15:25:54;8.70;;;7.10;;
44452;SDS011;30155;52.164;21.236;2024-02-16T15:30:46;10.60;;;6.50;;
44452;SDS011;30155;52.164;21.236;2024-02-16T15:35:37;9.60;;;6.50;;
44452;SDS011;30155;52.164;21.236;2024-02-16T15:40:29;11.00;;;7.30;;
44452;SDS011;30155;52.164;21.236;2024-02-16T15:45:20;8.90;;;6.60;;
44452;SDS011;30155;52.164;21.236;2024-02-16T15:50:11;10.60;;;7.00;;
44452;SDS011;30155;52.164;21.236;2024-02-16T15:55:04;10.00;;;7.10;;
44452;SDS011;30155;52.164;21.236;2024-02-16T15:59:56;23.70;;;7.90;;
44452;SDS011;30155;52.164;21.236;2024-02-16T16:04:48;10.90;;;7.10;;
44452;SDS011;30155;52.164;21.236;2024-02-16T16:09:40;12.40;;;7.60;;
44452;SDS011;30155;52.164;21.236;2024-02-16T16:14:32;11.30;;;8.40;;
44452;SDS011;30155;52.164;21.236;2024-02-16T16:19:24;19.30;;;7.30;;
44452;SDS011;30155;52.164;21.236;2024-02-16T16:24:15;10.20;;;7.50;;
44452;SDS011;30155;52.164;21.236;2024-02-16T16:29:07;10.70;;;7.40;;
44452;SDS011;30155;52.164;21.236;2024-02-16T16:33:59;12.20;;;7.70;;
44452;SDS011;30155;52.164;21.236;2024-02-16T16:38:50;14.30;;;8.10;;
44452;SDS011;30155;52.164;21.236;2024-02-16T16:43:42;10.80;;;8.20;;
44452;SDS011;30155;52.164;21.236;2024-02-16T16:48:33;12.80;;;8.20;;
44452;SDS011;30155;52.164;21.236;2024-02-16T16:53:25;11.30;;;8.40;;
44452;SDS011;30155;52.164;21.236;2024-02-16T16:58:16;14.40;;;9.00;;
44452;SDS011;30155;52.164;21.236;2024-02-16T17:03:08;10.50;;;8.30;;
44452;SDS011;30155;52.164;21.236;2024-02-16T17:08:00;12.90;;;7.60;;
44452;SDS011;30155;52.164;21.236;2024-02-16T17:12:51;14.50;;;8.40;;
44452;SDS011;30155;52.164;21.236;2024-02-16T17:17:43;11.40;;;8.40;;
44452;SDS011;30155;52.164;21.236;2024-02-16T17:22:39;14.90;;;8.50;;
44452;SDS011;30155;52.164;21.236;2024-02-16T17:27:30;12.10;;;9.10;;
44452;SDS011;30155;52.164;21.236;2024-02-16T17:32:23;10.70;;;8.80;;
44452;SDS011;30155;52.164;21.236;2024-02-16T17:37:14;14.50;;;9.20;;
44452;SDS011;30155;52.164;21.236;2024-02-16T17:42:06;11.00;;;8.70;;
44452;SDS011;30155;52.164;21.236;2024-02-16T17:46:57;11.70;;;8.80;;
44452;SDS011;30155;52.164;21.236;2024-02-16T17:51:49;13.50;;;10.20;;
44452;SDS011;30155;52.164;21.236;2024-02-16T17:56:42;12.50;;;8.90;;
44452;SDS011;30155;52.164;21.236;2024-02-16T18:01:33;12.70;;;9.40;;
44452;SDS011;30155;52.164;21.236;2024-02-16T18:06:26;12.80;;;9.30;;
44452;SDS011;30155;52.164;21.236;2024-02-16T18:11:17;13.30;;;9.60;;
44452;SDS011;30155;52.164;21.236;2024-02-16T18:16:09;14.70;;;10.30;;
44452;SDS011;30155;52.164;21.236;2024-02-16T18:21:00;16.90;;;10.70;;
44452;SDS011;30155;52.164;21.236;2024-02-16T18:25:52;15.60;;;10.30;;
44452;SDS011;30155;52.164;21.236;2024-02-16T18:30:43;18.70;;;11.50;;
44452;SDS011;30155;52.164;21.236;2024-02-16T18:35:35;13.80;;;10.90;;
44452;SDS011;30155;52.164;21.236;2024-02-16T18:40:26;15.30;;;10.40;;
44452;SDS011;30155;52.164;21.236;2024-02-16T18:51:38;16.40;;;11.40;;
44452;SDS011;30155;52.164;21.236;2024-02-16T18:56:30;15.80;;;11.10;;
44452;SDS011;30155;52.164;21.236;2024-02-16T19:01:21;17.70;;;12.90;;
44452;SDS011;30155;52.164;21.236;2024-02-16T19:06:13;16.10;;;10.20;;
44452;SDS011;30155;52.164;21.236;2024-02-16T19:11:04;17.30;;;11.40;;
44452;SDS011;30155;52.164;21.236;2024-02-16T19:15:56;14.90;;;10.20;;
44452;SDS011;30155;52.164;21.236;2024-02-16T19:20:50;15.00;;;11.50;;
44452;SDS011;30155;52.164;21.236;2024-02-16T19:25:44;16.30;;;11.40;;
44452;SDS011;30155;52.164;21.236;2024-02-16T19:30:35;17.00;;;11.80;;
44452;SDS011;30155;52.164;21.236;2024-02-16T19:35:27;18.80;;;11.30;;
44452;SDS011;30155;52.164;21.236;2024-02-16T19:40:18;18.90;;;11.20;;
44452;SDS011;30155;52.164;21.236;2024-02-16T19:45:10;15.40;;;10.10;;
44452;SDS011;30155;52.164;21.236;2024-02-16T19:50:01;19.10;;;11.30;;
44452;SDS011;30155;52.164;21.236;2024-02-16T19:54:58;16.20;;;11.90;;
44452;SDS011;30155;52.164;21.236;2024-02-16T19:59:52;21.70;;;11.10;;
44452;SDS011;30155;52.164;21.236;2024-02-16T20:04:43;15.90;;;11.10;;
44452;SDS011;30155;52.164;21.236;2024-02-16T20:09:35;18.00;;;12.50;;
44452;SDS011;30155;52.164;21.236;2024-02-16T20:14:27;17.40;;;11.10;;
44452;SDS011;30155;52.164;21.236;2024-02-16T20:19:18;17.50;;;12.30;;
44452;SDS011;30155;52.164;21.236;2024-02-16T20:24:10;18.80;;;11.00;;
44452;SDS011;30155;52.164;21.236;2024-02-16T20:29:03;17.70;;;11.50;;
44452;SDS011;30155;52.164;21.236;2024-02-16T20:33:55;17.50;;;11.80;;
44452;SDS011;30155;52.164;21.236;2024-02-16T20:38:46;16.30;;;12.10;;
44452;SDS011;30155;52.164;21.236;2024-02-16T20:43:38;18.90;;;12.30;;
44452;SDS011;30155;52.164;21.236;2024-02-16T20:48:29;21.20;;;13.00;;
44452;SDS011;30155;52.164;21.236;2024-02-16T20:53:21;20.40;;;13.70;;
44452;SDS011;30155;52.164;21.236;2024-02-16T20:58:12;22.50;;;12.40;;
44452;SDS011;30155;52.164;21.236;2024-02-16T21:03:04;21.30;;;14.10;;
44452;SDS011;30155;52.164;21.236;2024-02-16T21:07:56;19.60;;;13.20;;
44452;SDS011;30155;52.164;21.236;2024-02-16T21:12:49;24.00;;;13.10;;
44452;SDS011;30155;52.164;21.236;2024-02-16T21:17:41;20.70;;;14.00;;
44452;SDS011;30155;52.164;21.236;2024-02-16T21:22:33;20.50;;;13.80;;
44452;SDS011;30155;52.164;21.236;2024-02-16T21:27:28;18.20;;;13.40;;
44452;SDS011;30155;52.164;21.236;2024-02-16T21:32:20;18.10;;;13.20;;
44452;SDS011;30155;52.164;21.236;2024-02-16T21:37:12;19.70;;;13.30;;
44452;SDS011;30155;52.164;21.236;2024-02-16T21:42:04;21.50;;;13.40;;
44452;SDS011;30155;52.164;21.236;2024-02-16T21:46:56;19.50;;;14.00;;
44452;SDS011;30155;52.164;21.236;2024-02-16T21:51:49;20.90;;;14.40;;
44452;SDS011;30155;52.164;21.236;2024-02-16T21:56:41;19.40;;;14.60;;
44452;SDS011;30155;52.164;21.236;2024-02-16T22:01:32;19.80;;;13.80;;
44452;SDS011;30155;52.164;21.236;2024-02-16T22:06:24;20.80;;;14.30;;
44452;SDS011;30155;52.164;21.236;2024-02-16T22:11:18;20.10;;;14.20;;
44452;SDS011;30155;52.164;21.236;2024-02-16T22:16:11;19.30;;;13.70;;
44452;SDS011;30155;52.164;21.236;2024-02-16T22:21:03;20.10;;;15.70;;
44452;SDS011;30155;52.164;21.236;2024-02-16T22:25:55;22.30;;;14.90;;
44452;SDS011;30155;52.164;21.236;2024-02-16T22:30:46;24.40;;;16.20;;
44452;SDS011;30155;52.164;21.236;2024-02-16T22:35:38;22.40;;;15.90;;
44452;SDS011;30155;52.164;21.236;2024-02-16T22:40:29;21.60;;;14.70;;
44452;SDS011;30155;52.164;21.236;2024-02-16T22:45:20;23.10;;;14.50;;
44452;SDS011;30155;52.164;21.236;2024-02-16T22:50:12;18.90;;;14.20;;
44452;SDS011;30155;52.164;21.236;2024-02-16T22:55:04;24.80;;;16.60;;
44452;SDS011;30155;52.164;21.236;2024-02-16T22:59:56;21.00;;;14.80;;
44452;SDS011;30155;52.164;21.236;2024-02-16T23:04:48;26.50;;;16.20;;
44452;SDS011;30155;52.164;21.236;2024-02-16T23:09:39;26.30;;;17.40;;
44452;SDS011;30155;52.164;21.236;2024-02-16T23:14:33;23.30;;;16.70;;
44452;SDS011;30155;52.164;21.236;2024-02-16T23:19:25;26.90;;;18.60;;
44452;SDS011;30155;52.164;21.236;2024-02-16T23:24:18;25.10;;;17.70;;
44452;SDS011;30155;52.164;21.236;2024-02-16T23:29:09;24.50;;;17.60;;
44452;SDS011;30155;52.164;21.236;2024-02-16T23:34:23;25.70;;;18.30;;
44452;SDS011;30155;52.164;21.236;2024-02-16T23:39:14;21.50;;;16.50;;
44452;SDS011;30155;52.164;21.236;2024-02-16T23:44:09;27.40;;;18.40;;
44452;SDS011;30155;52.164;21.236;2024-02-16T23:49:01;27.90;;;17.50;;
44452;SDS011;30155;52.164;21.236;2024-02-16T23:54:27;29.40;;;18.60;;
44452;SDS011;30155;52.164;21.236;2024-02-16T23:59:18;27.90;;;17.80;;
